Brockway, Michigan
Current Conditions -  °F | °C
As of 2:36 PM on Friday 31 Oct 2014 (Local Time) from KPHN Reporting Station
Light Rain Light Rain  
Wind Chill: 43°   Ceiling: 2500
Heat Index: 43°   Visibility: 3mi
Dew Point: 41°   Wind: 3mph
Humidity: 93%   Direction: 360°N
Pressure: 29.88"   Gusts: NA
Location:  43.127°N, 82.8328°W
Report Text: KPHN 311836Z AUTO 36003KT 3SM -RA SCT007 OVC025 06/05 A2988 RMK AO2
Loading
Personal Weather Stations






























Interactive Weather Map
Tropical Storm Tracking
New forecast layout! Learn more

10-Day Weather Forecast

Advertisements
Track Severe Weather on mobile